Strona główna
METAR-TAF:

METAR-TAF

Lotnisko :

Baza lotnicza

Meppen, Niemcy

Szerokość geograficzna: 52-43-24N, Długość geograficzna: 007-19-35E, wysokość: 21 m

Aktualna obserwacja pogody

Raport powstał 15 minut temu, godzina 11:20 UTC
Wiatr 10 kt od południowy zachód
Temperatura 5°C
Wilgotność 75%
Ciśnienie 1022 hPa
Widzialność 10 km lub więcej
Mało chmury na wysokości 4000 ft
Rozproszone chmury na wysokości 22000 ft

METAR: ETWM 101120Z 22010KT 9999 FEW040 SCT220 05/01 Q1022 BLU+

czas: 12:35 (11:35 UTC)


TAF: brakujący

Obserwacja i prognoza pogody dla ponad 4000 lotnisk (raport METAR i TAF).

Dostępne stacje oznaczono żółtymi i czerwonymi punktami na mapie.

Najedź kursorem aby zobaczyć nazwę stacji.

Kliknij aby zobaczyć obserwacje i prognozy pogody.

Aby zmienić mapę: kliknij na zielony przycisk z czarnym krzyżykiem, aby powiększyć; na zielony przycisk z myślnikiem, aby pomniejszyć; na zielone strzałki, aby przejść do map sąsiednich.


METAR-TAF: